Greenville Junction, Maine
Current Conditions -  °F | °C
As of 2:43 AM on Thursday 23 Oct 2014 (Local Time) from KMLT Reporting Station
Light Rain Light Rain  
Wind Chill: 39°   Ceiling: 700
Heat Index: 44°   Visibility: 2.5mi
Dew Point: 42°   Wind: 10mph
Humidity: 93%   Direction: 50°NE
Pressure: 30.15"   Gusts: NA
Location:  45.46°N, 69.62°W
Report Text: KMLT 230643Z AUTO 05009KT 2 1/2SM -RA BR BKN007 OVC011 07/06 A3015 RMK AO2 RAE11B20 P0002 T00670056
Loading
Personal Weather Stations






























Interactive Weather Map
Tropical Storm Tracking
New forecast layout! Learn more

10-Day Weather Forecast

Advertisements
Track Severe Weather on mobile